sensor_id;sensor_type;location;lat;lon;timestamp;temperature;humidity
23147;DHT22;11742;53.532;-1.478;2024-03-02T00:01:24;6.50;99.00
23147;DHT22;11742;53.532;-1.478;2024-03-02T00:04:08;6.50;99.10
23147;DHT22;11742;53.532;-1.478;2024-03-02T00:06:53;6.50;99.10
23147;DHT22;11742;53.532;-1.478;2024-03-02T00:09:38;6.50;99.10
23147;DHT22;11742;53.532;-1.478;2024-03-02T00:12:23;6.40;99.10
23147;DHT22;11742;53.532;-1.478;2024-03-02T00:18:16;6.40;99.10
23147;DHT22;11742;53.532;-1.478;2024-03-02T00:21:00;6.40;99.10
23147;DHT22;11742;53.532;-1.478;2024-03-02T00:23:48;6.40;99.10
23147;DHT22;11742;53.532;-1.478;2024-03-02T00:26:35;6.40;99.10
23147;DHT22;11742;53.532;-1.478;2024-03-02T00:29:20;6.30;99.10
23147;DHT22;11742;53.532;-1.478;2024-03-02T00:32:18;6.30;99.10
23147;DHT22;11742;53.532;-1.478;2024-03-02T00:35:05;6.30;99.10
23147;DHT22;11742;53.532;-1.478;2024-03-02T00:37:49;6.30;99.10
23147;DHT22;11742;53.532;-1.478;2024-03-02T00:40:33;6.30;99.10
23147;DHT22;11742;53.532;-1.478;2024-03-02T00:43:47;6.30;99.20
23147;DHT22;11742;53.532;-1.478;2024-03-02T00:46:42;6.30;99.20
23147;DHT22;11742;53.532;-1.478;2024-03-02T00:49:28;6.30;99.20
23147;DHT22;11742;53.532;-1.478;2024-03-02T00:52:13;6.30;99.20
23147;DHT22;11742;53.532;-1.478;2024-03-02T00:54:57;6.30;99.20
23147;DHT22;11742;53.532;-1.478;2024-03-02T00:57:42;6.30;99.20
23147;DHT22;11742;53.532;-1.478;2024-03-02T01:00:28;6.30;99.30
23147;DHT22;11742;53.532;-1.478;2024-03-02T01:03:12;6.30;99.30
23147;DHT22;11742;53.532;-1.478;2024-03-02T01:05:56;6.30;99.30
23147;DHT22;11742;53.532;-1.478;2024-03-02T01:08:40;6.30;99.30
23147;DHT22;11742;53.532;-1.478;2024-03-02T01:11:25;6.20;99.30
23147;DHT22;11742;53.532;-1.478;2024-03-02T01:14:09;6.20;99.30
23147;DHT22;11742;53.532;-1.478;2024-03-02T01:16:54;6.20;99.30
23147;DHT22;11742;53.532;-1.478;2024-03-02T01:19:38;6.20;99.30
23147;DHT22;11742;53.532;-1.478;2024-03-02T01:22:24;6.20;99.30
23147;DHT22;11742;53.532;-1.478;2024-03-02T01:25:09;6.20;99.30
23147;DHT22;11742;53.532;-1.478;2024-03-02T01:27:53;6.20;99.30
23147;DHT22;11742;53.532;-1.478;2024-03-02T01:30:37;6.20;99.40
23147;DHT22;11742;53.532;-1.478;2024-03-02T01:33:21;6.20;99.30
23147;DHT22;11742;53.532;-1.478;2024-03-02T01:36:05;6.20;99.40
23147;DHT22;11742;53.532;-1.478;2024-03-02T01:38:50;6.20;99.40
23147;DHT22;11742;53.532;-1.478;2024-03-02T01:41:34;6.20;99.40
23147;DHT22;11742;53.532;-1.478;2024-03-02T01:44:19;6.20;99.40
23147;DHT22;11742;53.532;-1.478;2024-03-02T01:47:06;6.20;99.40
23147;DHT22;11742;53.532;-1.478;2024-03-02T01:49:51;6.20;99.40
23147;DHT22;11742;53.532;-1.478;2024-03-02T01:52:35;6.20;99.40
23147;DHT22;11742;53.532;-1.478;2024-03-02T01:55:20;6.20;99.40
23147;DHT22;11742;53.532;-1.478;2024-03-02T01:58:05;6.20;99.40
23147;DHT22;11742;53.532;-1.478;2024-03-02T02:00:49;6.20;99.40
23147;DHT22;11742;53.532;-1.478;2024-03-02T02:03:34;6.20;99.40
23147;DHT22;11742;53.532;-1.478;2024-03-02T02:06:18;6.20;99.40
23147;DHT22;11742;53.532;-1.478;2024-03-02T02:09:03;6.20;99.50
23147;DHT22;11742;53.532;-1.478;2024-03-02T02:11:47;6.20;99.50
23147;DHT22;11742;53.532;-1.478;2024-03-02T02:14:31;6.20;99.50
23147;DHT22;11742;53.532;-1.478;2024-03-02T02:17:16;6.20;99.50
23147;DHT22;11742;53.532;-1.478;2024-03-02T02:20:01;6.20;99.50
23147;DHT22;11742;53.532;-1.478;2024-03-02T02:22:55;6.20;99.90
23147;DHT22;11742;53.532;-1.478;2024-03-02T02:25:40;6.20;99.50
23147;DHT22;11742;53.532;-1.478;2024-03-02T02:28:24;6.20;99.50
23147;DHT22;11742;53.532;-1.478;2024-03-02T02:31:08;6.20;99.50
23147;DHT22;11742;53.532;-1.478;2024-03-02T02:33:52;6.10;99.50
23147;DHT22;11742;53.532;-1.478;2024-03-02T02:36:38;6.10;99.50
23147;DHT22;11742;53.532;-1.478;2024-03-02T02:39:24;6.10;99.50
23147;DHT22;11742;53.532;-1.478;2024-03-02T02:42:08;6.20;99.50
23147;DHT22;11742;53.532;-1.478;2024-03-02T02:44:52;6.10;99.50
23147;DHT22;11742;53.532;-1.478;2024-03-02T02:47:36;6.20;99.60
23147;DHT22;11742;53.532;-1.478;2024-03-02T02:50:20;6.20;99.90
23147;DHT22;11742;53.532;-1.478;2024-03-02T02:53:05;6.10;99.50
23147;DHT22;11742;53.532;-1.478;2024-03-02T02:55:52;6.10;99.50
23147;DHT22;11742;53.532;-1.478;2024-03-02T02:58:36;6.10;99.60
23147;DHT22;11742;53.532;-1.478;2024-03-02T03:01:20;6.20;99.60
23147;DHT22;11742;53.532;-1.478;2024-03-02T03:04:04;6.10;99.60
23147;DHT22;11742;53.532;-1.478;2024-03-02T03:06:49;6.10;99.50
23147;DHT22;11742;53.532;-1.478;2024-03-02T03:09:33;6.20;99.60
23147;DHT22;11742;53.532;-1.478;2024-03-02T03:12:21;6.10;99.60
23147;DHT22;11742;53.532;-1.478;2024-03-02T03:15:05;6.10;99.60
23147;DHT22;11742;53.532;-1.478;2024-03-02T03:17:50;6.10;99.60
23147;DHT22;11742;53.532;-1.478;2024-03-02T03:20:35;6.10;99.60
23147;DHT22;11742;53.532;-1.478;2024-03-02T03:23:19;6.10;99.60
23147;DHT22;11742;53.532;-1.478;2024-03-02T03:26:03;6.10;99.60
23147;DHT22;11742;53.532;-1.478;2024-03-02T03:28:48;6.10;99.60
23147;DHT22;11742;53.532;-1.478;2024-03-02T03:31:33;6.10;99.60
23147;DHT22;11742;53.532;-1.478;2024-03-02T03:34:17;6.10;99.60
23147;DHT22;11742;53.532;-1.478;2024-03-02T03:37:01;6.10;99.60
23147;DHT22;11742;53.532;-1.478;2024-03-02T03:39:46;6.10;99.60
23147;DHT22;11742;53.532;-1.478;2024-03-02T03:42:30;6.10;99.60
23147;DHT22;11742;53.532;-1.478;2024-03-02T03:45:15;6.10;99.60
23147;DHT22;11742;53.532;-1.478;2024-03-02T03:47:59;6.10;99.60
23147;DHT22;11742;53.532;-1.478;2024-03-02T03:50:43;6.10;99.60
23147;DHT22;11742;53.532;-1.478;2024-03-02T03:53:27;6.10;99.60
23147;DHT22;11742;53.532;-1.478;2024-03-02T03:56:11;6.10;99.70
23147;DHT22;11742;53.532;-1.478;2024-03-02T03:58:55;6.10;99.70
23147;DHT22;11742;53.532;-1.478;2024-03-02T04:01:39;6.10;99.70
23147;DHT22;11742;53.532;-1.478;2024-03-02T04:04:23;6.10;99.70
23147;DHT22;11742;53.532;-1.478;2024-03-02T04:07:07;6.10;99.70
23147;DHT22;11742;53.532;-1.478;2024-03-02T04:09:52;6.10;99.70
23147;DHT22;11742;53.532;-1.478;2024-03-02T04:12:36;6.10;99.70
23147;DHT22;11742;53.532;-1.478;2024-03-02T04:15:21;6.10;99.70
23147;DHT22;11742;53.532;-1.478;2024-03-02T04:18:07;6.10;99.70
23147;DHT22;11742;53.532;-1.478;2024-03-02T04:20:51;6.10;99.70
23147;DHT22;11742;53.532;-1.478;2024-03-02T04:23:35;6.10;99.70
23147;DHT22;11742;53.532;-1.478;2024-03-02T04:26:19;6.10;99.70
23147;DHT22;11742;53.532;-1.478;2024-03-02T04:29:06;6.10;99.90
23147;DHT22;11742;53.532;-1.478;2024-03-02T04:31:50;6.10;99.70
23147;DHT22;11742;53.532;-1.478;2024-03-02T04:34:34;6.10;99.70
23147;DHT22;11742;53.532;-1.478;2024-03-02T04:37:18;6.10;99.70
23147;DHT22;11742;53.532;-1.478;2024-03-02T04:40:03;6.10;99.70
23147;DHT22;11742;53.532;-1.478;2024-03-02T04:42:47;6.10;99.70
23147;DHT22;11742;53.532;-1.478;2024-03-02T04:45:31;6.10;99.70
23147;DHT22;11742;53.532;-1.478;2024-03-02T04:48:16;6.10;99.70
23147;DHT22;11742;53.532;-1.478;2024-03-02T04:51:00;6.10;99.70
23147;DHT22;11742;53.532;-1.478;2024-03-02T04:53:44;6.10;99.70
23147;DHT22;11742;53.532;-1.478;2024-03-02T04:56:28;6.10;99.70
23147;DHT22;11742;53.532;-1.478;2024-03-02T04:59:16;6.10;99.70
23147;DHT22;11742;53.532;-1.478;2024-03-02T05:02:01;6.10;99.70
23147;DHT22;11742;53.532;-1.478;2024-03-02T05:04:46;6.10;99.70
23147;DHT22;11742;53.532;-1.478;2024-03-02T05:07:32;6.10;99.60
23147;DHT22;11742;53.532;-1.478;2024-03-02T05:10:16;6.10;99.60
23147;DHT22;11742;53.532;-1.478;2024-03-02T05:13:00;6.10;99.60
23147;DHT22;11742;53.532;-1.478;2024-03-02T05:15:44;6.10;99.60
23147;DHT22;11742;53.532;-1.478;2024-03-02T05:18:28;6.10;99.60
23147;DHT22;11742;53.532;-1.478;2024-03-02T05:21:12;6.10;99.60
23147;DHT22;11742;53.532;-1.478;2024-03-02T05:23:56;6.20;99.60
23147;DHT22;11742;53.532;-1.478;2024-03-02T05:26:40;6.10;99.50
23147;DHT22;11742;53.532;-1.478;2024-03-02T05:29:25;6.20;99.60
23147;DHT22;11742;53.532;-1.478;2024-03-02T05:32:09;6.20;99.60
23147;DHT22;11742;53.532;-1.478;2024-03-02T05:34:53;6.20;99.60
23147;DHT22;11742;53.532;-1.478;2024-03-02T05:37:37;6.20;99.60
23147;DHT22;11742;53.532;-1.478;2024-03-02T05:40:21;6.20;99.60
23147;DHT22;11742;53.532;-1.478;2024-03-02T05:43:05;6.20;99.50
23147;DHT22;11742;53.532;-1.478;2024-03-02T05:45:50;6.20;99.50
23147;DHT22;11742;53.532;-1.478;2024-03-02T05:48:34;6.20;99.50
23147;DHT22;11742;53.532;-1.478;2024-03-02T05:51:18;6.20;99.50
23147;DHT22;11742;53.532;-1.478;2024-03-02T05:54:03;6.20;99.50
23147;DHT22;11742;53.532;-1.478;2024-03-02T05:56:47;6.20;99.50
23147;DHT22;11742;53.532;-1.478;2024-03-02T05:59:31;6.20;99.50
23147;DHT22;11742;53.532;-1.478;2024-03-02T06:02:15;6.20;99.50
23147;DHT22;11742;53.532;-1.478;2024-03-02T06:05:00;6.20;99.60
23147;DHT22;11742;53.532;-1.478;2024-03-02T06:07:44;6.20;99.50
23147;DHT22;11742;53.532;-1.478;2024-03-02T06:10:28;6.20;99.50
23147;DHT22;11742;53.532;-1.478;2024-03-02T06:13:13;6.20;99.50
23147;DHT22;11742;53.532;-1.478;2024-03-02T06:15:57;6.20;99.50
23147;DHT22;11742;53.532;-1.478;2024-03-02T06:18:41;6.30;99.50
23147;DHT22;11742;53.532;-1.478;2024-03-02T06:21:26;6.30;99.50
23147;DHT22;11742;53.532;-1.478;2024-03-02T06:24:11;6.30;99.50
23147;DHT22;11742;53.532;-1.478;2024-03-02T06:26:55;6.30;99.50
23147;DHT22;11742;53.532;-1.478;2024-03-02T06:29:39;6.30;99.50
23147;DHT22;11742;53.532;-1.478;2024-03-02T06:32:23;6.30;99.50
23147;DHT22;11742;53.532;-1.478;2024-03-02T06:35:09;6.30;99.50
23147;DHT22;11742;53.532;-1.478;2024-03-02T06:37:54;6.30;99.50
23147;DHT22;11742;53.532;-1.478;2024-03-02T06:40:38;6.30;99.50
23147;DHT22;11742;53.532;-1.478;2024-03-02T06:43:24;6.30;99.50
23147;DHT22;11742;53.532;-1.478;2024-03-02T06:46:09;6.30;99.90
23147;DHT22;11742;53.532;-1.478;2024-03-02T06:48:53;6.30;99.50
23147;DHT22;11742;53.532;-1.478;2024-03-02T06:51:37;6.30;99.50
23147;DHT22;11742;53.532;-1.478;2024-03-02T06:54:21;6.30;99.50
23147;DHT22;11742;53.532;-1.478;2024-03-02T06:57:06;6.30;99.50
23147;DHT22;11742;53.532;-1.478;2024-03-02T06:59:50;6.30;99.50
23147;DHT22;11742;53.532;-1.478;2024-03-02T07:02:35;6.30;99.50
23147;DHT22;11742;53.532;-1.478;2024-03-02T07:05:20;6.30;99.50
23147;DHT22;11742;53.532;-1.478;2024-03-02T07:08:05;6.30;99.50
23147;DHT22;11742;53.532;-1.478;2024-03-02T07:10:50;6.40;99.60
23147;DHT22;11742;53.532;-1.478;2024-03-02T07:13:35;6.30;99.50
23147;DHT22;11742;53.532;-1.478;2024-03-02T07:16:19;6.40;99.60
23147;DHT22;11742;53.532;-1.478;2024-03-02T07:19:14;6.40;99.60
23147;DHT22;11742;53.532;-1.478;2024-03-02T07:21:58;6.40;99.60
23147;DHT22;11742;53.532;-1.478;2024-03-02T07:24:43;6.40;99.60
23147;DHT22;11742;53.532;-1.478;2024-03-02T07:27:27;6.40;99.60
23147;DHT22;11742;53.532;-1.478;2024-03-02T07:30:15;6.40;99.60
23147;DHT22;11742;53.532;-1.478;2024-03-02T07:33:02;6.40;99.60
23147;DHT22;11742;53.532;-1.478;2024-03-02T07:35:47;6.40;99.60
23147;DHT22;11742;53.532;-1.478;2024-03-02T07:38:31;6.40;99.60
23147;DHT22;11742;53.532;-1.478;2024-03-02T07:41:17;6.40;99.60
23147;DHT22;11742;53.532;-1.478;2024-03-02T07:44:01;6.40;99.60
23147;DHT22;11742;53.532;-1.478;2024-03-02T07:46:46;6.40;99.60
23147;DHT22;11742;53.532;-1.478;2024-03-02T07:49:31;6.40;99.60
23147;DHT22;11742;53.532;-1.478;2024-03-02T07:52:15;6.40;99.60
23147;DHT22;11742;53.532;-1.478;2024-03-02T07:54:59;6.50;99.70
23147;DHT22;11742;53.532;-1.478;2024-03-02T07:57:44;6.50;99.70
23147;DHT22;11742;53.532;-1.478;2024-03-02T08:00:28;6.50;99.60
23147;DHT22;11742;53.532;-1.478;2024-03-02T08:03:13;6.50;99.60
23147;DHT22;11742;53.532;-1.478;2024-03-02T08:05:58;6.50;99.60
23147;DHT22;11742;53.532;-1.478;2024-03-02T08:08:43;6.50;99.60
23147;DHT22;11742;53.532;-1.478;2024-03-02T08:11:27;6.50;99.60
23147;DHT22;11742;53.532;-1.478;2024-03-02T08:14:12;6.50;99.60
23147;DHT22;11742;53.532;-1.478;2024-03-02T08:16:57;6.50;99.70
23147;DHT22;11742;53.532;-1.478;2024-03-02T08:19:41;6.50;99.60
23147;DHT22;11742;53.532;-1.478;2024-03-02T08:22:27;6.50;99.70
23147;DHT22;11742;53.532;-1.478;2024-03-02T08:25:11;6.50;99.70
23147;DHT22;11742;53.532;-1.478;2024-03-02T08:27:55;6.50;99.70
23147;DHT22;11742;53.532;-1.478;2024-03-02T08:30:39;6.50;99.70
23147;DHT22;11742;53.532;-1.478;2024-03-02T08:33:23;6.50;99.70
23147;DHT22;11742;53.532;-1.478;2024-03-02T08:36:08;6.60;99.70
23147;DHT22;11742;53.532;-1.478;2024-03-02T08:38:53;6.50;99.70
23147;DHT22;11742;53.532;-1.478;2024-03-02T08:41:38;6.60;99.70
23147;DHT22;11742;53.532;-1.478;2024-03-02T08:44:22;6.60;99.70
23147;DHT22;11742;53.532;-1.478;2024-03-02T08:47:06;6.60;99.70
23147;DHT22;11742;53.532;-1.478;2024-03-02T08:49:50;6.60;99.70
23147;DHT22;11742;53.532;-1.478;2024-03-02T08:52:34;6.60;99.70
23147;DHT22;11742;53.532;-1.478;2024-03-02T08:55:19;6.60;99.70
23147;DHT22;11742;53.532;-1.478;2024-03-02T08:58:04;6.60;99.70
23147;DHT22;11742;53.532;-1.478;2024-03-02T09:00:48;6.60;99.70
23147;DHT22;11742;53.532;-1.478;2024-03-02T09:03:33;6.70;99.80
23147;DHT22;11742;53.532;-1.478;2024-03-02T09:06:18;6.70;99.80
23147;DHT22;11742;53.532;-1.478;2024-03-02T09:09:03;6.70;99.80
23147;DHT22;11742;53.532;-1.478;2024-03-02T09:11:48;6.70;99.80
23147;DHT22;11742;53.532;-1.478;2024-03-02T09:14:33;6.70;99.80
23147;DHT22;11742;53.532;-1.478;2024-03-02T09:17:18;6.70;99.80
23147;DHT22;11742;53.532;-1.478;2024-03-02T09:20:02;6.70;99.80
23147;DHT22;11742;53.532;-1.478;2024-03-02T09:22:48;6.70;99.80
23147;DHT22;11742;53.532;-1.478;2024-03-02T09:25:32;6.70;99.80
23147;DHT22;11742;53.532;-1.478;2024-03-02T09:28:17;6.80;99.90
23147;DHT22;11742;53.532;-1.478;2024-03-02T09:31:01;6.70;99.80
23147;DHT22;11742;53.532;-1.478;2024-03-02T09:33:45;6.70;99.80
23147;DHT22;11742;53.532;-1.478;2024-03-02T09:36:30;6.70;99.90
23147;DHT22;11742;53.532;-1.478;2024-03-02T09:39:15;6.80;99.90
23147;DHT22;11742;53.532;-1.478;2024-03-02T09:41:59;6.80;99.90
23147;DHT22;11742;53.532;-1.478;2024-03-02T09:44:45;6.80;99.90
23147;DHT22;11742;53.532;-1.478;2024-03-02T09:47:29;6.80;99.90
23147;DHT22;11742;53.532;-1.478;2024-03-02T09:50:13;6.80;99.90
23147;DHT22;11742;53.532;-1.478;2024-03-02T09:52:59;6.80;99.90
23147;DHT22;11742;53.532;-1.478;2024-03-02T09:55:47;6.90;99.90
23147;DHT22;11742;53.532;-1.478;2024-03-02T09:58:31;6.90;99.90
23147;DHT22;11742;53.532;-1.478;2024-03-02T10:01:15;6.90;99.90
23147;DHT22;11742;53.532;-1.478;2024-03-02T10:04:00;6.90;99.90
23147;DHT22;11742;53.532;-1.478;2024-03-02T10:06:44;6.90;99.90
23147;DHT22;11742;53.532;-1.478;2024-03-02T10:09:29;6.90;99.90
23147;DHT22;11742;53.532;-1.478;2024-03-02T10:12:15;6.90;99.90
23147;DHT22;11742;53.532;-1.478;2024-03-02T10:15:03;6.90;99.90
23147;DHT22;11742;53.532;-1.478;2024-03-02T10:17:51;7.00;99.90
23147;DHT22;11742;53.532;-1.478;2024-03-02T10:20:35;7.00;99.90
23147;DHT22;11742;53.532;-1.478;2024-03-02T10:23:20;7.00;99.90
23147;DHT22;11742;53.532;-1.478;2024-03-02T10:26:17;7.00;99.90
23147;DHT22;11742;53.532;-1.478;2024-03-02T10:29:02;7.00;99.90
23147;DHT22;11742;53.532;-1.478;2024-03-02T10:31:46;7.00;99.90
23147;DHT22;11742;53.532;-1.478;2024-03-02T10:34:31;7.00;99.90
23147;DHT22;11742;53.532;-1.478;2024-03-02T10:37:15;7.10;99.90
23147;DHT22;11742;53.532;-1.478;2024-03-02T10:40:05;7.10;99.90
23147;DHT22;11742;53.532;-1.478;2024-03-02T10:42:50;7.10;99.90
23147;DHT22;11742;53.532;-1.478;2024-03-02T10:45:37;7.10;99.90
23147;DHT22;11742;53.532;-1.478;2024-03-02T10:48:25;7.20;99.90
23147;DHT22;11742;53.532;-1.478;2024-03-02T10:51:09;7.20;99.90
23147;DHT22;11742;53.532;-1.478;2024-03-02T10:53:53;7.20;99.90
23147;DHT22;11742;53.532;-1.478;2024-03-02T10:56:43;7.20;99.90
23147;DHT22;11742;53.532;-1.478;2024-03-02T10:59:35;7.20;99.90
23147;DHT22;11742;53.532;-1.478;2024-03-02T11:02:21;7.20;99.90
23147;DHT22;11742;53.532;-1.478;2024-03-02T11:05:07;7.20;99.90
23147;DHT22;11742;53.532;-1.478;2024-03-02T11:08:06;7.30;99.90
23147;DHT22;11742;53.532;-1.478;2024-03-02T11:10:55;7.30;99.90
23147;DHT22;11742;53.532;-1.478;2024-03-02T11:13:47;7.30;99.90
23147;DHT22;11742;53.532;-1.478;2024-03-02T11:16:37;7.30;99.90
23147;DHT22;11742;53.532;-1.478;2024-03-02T11:19:23;7.30;99.90
23147;DHT22;11742;53.532;-1.478;2024-03-02T11:22:09;7.30;99.90
23147;DHT22;11742;53.532;-1.478;2024-03-02T11:24:53;7.30;99.90
23147;DHT22;11742;53.532;-1.478;2024-03-02T11:28:04;7.30;99.90
23147;DHT22;11742;53.532;-1.478;2024-03-02T11:30:49;7.40;99.90
23147;DHT22;11742;53.532;-1.478;2024-03-02T11:33:34;7.40;99.90
23147;DHT22;11742;53.532;-1.478;2024-03-02T11:36:18;7.40;99.90
23147;DHT22;11742;53.532;-1.478;2024-03-02T11:39:02;7.40;99.90
23147;DHT22;11742;53.532;-1.478;2024-03-02T11:41:48;7.40;99.90
23147;DHT22;11742;53.532;-1.478;2024-03-02T11:44:36;7.40;99.90
23147;DHT22;11742;53.532;-1.478;2024-03-02T11:47:21;7.50;99.90
23147;DHT22;11742;53.532;-1.478;2024-03-02T11:50:06;7.50;99.90
23147;DHT22;11742;53.532;-1.478;2024-03-02T11:52:51;7.50;99.90
23147;DHT22;11742;53.532;-1.478;2024-03-02T11:55:36;7.50;99.90
23147;DHT22;11742;53.532;-1.478;2024-03-02T11:58:21;7.50;99.90
23147;DHT22;11742;53.532;-1.478;2024-03-02T12:01:08;7.50;99.90
23147;DHT22;11742;53.532;-1.478;2024-03-02T12:03:53;7.50;99.90
23147;DHT22;11742;53.532;-1.478;2024-03-02T12:06:38;7.60;99.90
23147;DHT22;11742;53.532;-1.478;2024-03-02T12:09:23;7.60;99.90
23147;DHT22;11742;53.532;-1.478;2024-03-02T12:12:08;7.60;99.90
23147;DHT22;11742;53.532;-1.478;2024-03-02T12:14:53;7.60;99.90
23147;DHT22;11742;53.532;-1.478;2024-03-02T12:17:39;7.60;99.90
23147;DHT22;11742;53.532;-1.478;2024-03-02T12:20:25;7.60;99.90
23147;DHT22;11742;53.532;-1.478;2024-03-02T12:23:09;7.70;99.90
23147;DHT22;11742;53.532;-1.478;2024-03-02T12:25:54;7.70;99.90
23147;DHT22;11742;53.532;-1.478;2024-03-02T12:28:38;7.70;99.90
23147;DHT22;11742;53.532;-1.478;2024-03-02T12:31:23;7.70;99.90
23147;DHT22;11742;53.532;-1.478;2024-03-02T12:34:07;7.80;99.90
23147;DHT22;11742;53.532;-1.478;2024-03-02T12:36:52;7.80;99.90
23147;DHT22;11742;53.532;-1.478;2024-03-02T12:39:37;7.80;99.90
23147;DHT22;11742;53.532;-1.478;2024-03-02T12:42:24;7.80;99.90
23147;DHT22;11742;53.532;-1.478;2024-03-02T12:45:09;7.80;99.90
23147;DHT22;11742;53.532;-1.478;2024-03-02T12:47:53;7.80;99.90
23147;DHT22;11742;53.532;-1.478;2024-03-02T12:50:37;7.90;99.90
23147;DHT22;11742;53.532;-1.478;2024-03-02T12:53:22;7.90;99.90
23147;DHT22;11742;53.532;-1.478;2024-03-02T12:56:07;7.90;99.90
23147;DHT22;11742;53.532;-1.478;2024-03-02T12:58:55;7.90;99.90
23147;DHT22;11742;53.532;-1.478;2024-03-02T13:01:52;8.00;99.90
23147;DHT22;11742;53.532;-1.478;2024-03-02T13:04:37;8.00;99.90
23147;DHT22;11742;53.532;-1.478;2024-03-02T13:07:24;8.00;99.90
23147;DHT22;11742;53.532;-1.478;2024-03-02T13:10:08;8.00;99.90
23147;DHT22;11742;53.532;-1.478;2024-03-02T13:12:52;8.10;99.90
23147;DHT22;11742;53.532;-1.478;2024-03-02T13:15:38;8.10;99.90
23147;DHT22;11742;53.532;-1.478;2024-03-02T13:18:22;8.10;99.90
23147;DHT22;11742;53.532;-1.478;2024-03-02T13:21:08;8.10;99.90
23147;DHT22;11742;53.532;-1.478;2024-03-02T13:23:52;8.10;99.90
23147;DHT22;11742;53.532;-1.478;2024-03-02T13:26:37;8.20;99.90
23147;DHT22;11742;53.532;-1.478;2024-03-02T13:29:22;8.20;99.90
23147;DHT22;11742;53.532;-1.478;2024-03-02T13:32:06;8.20;99.90
23147;DHT22;11742;53.532;-1.478;2024-03-02T13:34:51;8.30;99.90
23147;DHT22;11742;53.532;-1.478;2024-03-02T13:37:35;8.20;99.90
23147;DHT22;11742;53.532;-1.478;2024-03-02T13:40:19;8.30;99.90
23147;DHT22;11742;53.532;-1.478;2024-03-02T13:43:04;8.30;99.90
23147;DHT22;11742;53.532;-1.478;2024-03-02T13:45:48;8.30;99.90
23147;DHT22;11742;53.532;-1.478;2024-03-02T13:48:33;8.40;99.90
23147;DHT22;11742;53.532;-1.478;2024-03-02T13:51:17;8.30;99.90
23147;DHT22;11742;53.532;-1.478;2024-03-02T13:54:01;8.40;99.90
23147;DHT22;11742;53.532;-1.478;2024-03-02T13:56:47;8.40;99.90
23147;DHT22;11742;53.532;-1.478;2024-03-02T13:59:31;8.40;99.90
23147;DHT22;11742;53.532;-1.478;2024-03-02T14:02:16;8.50;99.90
23147;DHT22;11742;53.532;-1.478;2024-03-02T14:05:00;8.50;99.90
23147;DHT22;11742;53.532;-1.478;2024-03-02T14:07:44;8.50;99.90
23147;DHT22;11742;53.532;-1.478;2024-03-02T14:10:28;8.50;99.90
23147;DHT22;11742;53.532;-1.478;2024-03-02T14:13:12;8.50;99.90
23147;DHT22;11742;53.532;-1.478;2024-03-02T14:15:56;8.50;99.90
23147;DHT22;11742;53.532;-1.478;2024-03-02T14:18:42;8.60;99.90
23147;DHT22;11742;53.532;-1.478;2024-03-02T14:21:26;8.60;99.90
23147;DHT22;11742;53.532;-1.478;2024-03-02T14:24:11;8.60;99.90
23147;DHT22;11742;53.532;-1.478;2024-03-02T14:26:55;8.60;99.90
23147;DHT22;11742;53.532;-1.478;2024-03-02T14:29:42;8.60;99.90
23147;DHT22;11742;53.532;-1.478;2024-03-02T14:32:27;8.70;99.90
23147;DHT22;11742;53.532;-1.478;2024-03-02T14:35:12;8.70;99.90
23147;DHT22;11742;53.532;-1.478;2024-03-02T14:37:56;8.70;99.90
23147;DHT22;11742;53.532;-1.478;2024-03-02T14:40:41;8.70;99.90
23147;DHT22;11742;53.532;-1.478;2024-03-02T14:43:26;8.70;99.90
23147;DHT22;11742;53.532;-1.478;2024-03-02T14:46:11;8.80;99.90
23147;DHT22;11742;53.532;-1.478;2024-03-02T14:48:56;8.80;99.90
23147;DHT22;11742;53.532;-1.478;2024-03-02T14:51:40;8.80;99.90
23147;DHT22;11742;53.532;-1.478;2024-03-02T14:54:24;8.80;99.90
23147;DHT22;11742;53.532;-1.478;2024-03-02T14:57:08;8.90;99.90
23147;DHT22;11742;53.532;-1.478;2024-03-02T14:59:52;8.90;99.90
23147;DHT22;11742;53.532;-1.478;2024-03-02T15:02:38;8.90;99.90
23147;DHT22;11742;53.532;-1.478;2024-03-02T15:05:22;8.90;99.90
23147;DHT22;11742;53.532;-1.478;2024-03-02T15:08:06;9.00;99.90
23147;DHT22;11742;53.532;-1.478;2024-03-02T15:10:52;9.00;99.90
23147;DHT22;11742;53.532;-1.478;2024-03-02T15:13:36;9.00;99.90
23147;DHT22;11742;53.532;-1.478;2024-03-02T15:16:20;9.00;99.90
23147;DHT22;11742;53.532;-1.478;2024-03-02T15:19:05;9.00;99.90
23147;DHT22;11742;53.532;-1.478;2024-03-02T15:21:50;9.00;99.90
23147;DHT22;11742;53.532;-1.478;2024-03-02T15:24:34;9.00;99.90
23147;DHT22;11742;53.532;-1.478;2024-03-02T15:27:18;9.00;99.90
23147;DHT22;11742;53.532;-1.478;2024-03-02T15:30:02;9.00;99.90
23147;DHT22;11742;53.532;-1.478;2024-03-02T15:32:47;9.10;99.90
23147;DHT22;11742;53.532;-1.478;2024-03-02T15:35:31;9.10;99.90
23147;DHT22;11742;53.532;-1.478;2024-03-02T15:38:16;9.10;99.90
23147;DHT22;11742;53.532;-1.478;2024-03-02T15:41:01;9.10;99.90
23147;DHT22;11742;53.532;-1.478;2024-03-02T15:43:46;9.10;99.90
23147;DHT22;11742;53.532;-1.478;2024-03-02T15:46:31;9.10;99.90
23147;DHT22;11742;53.532;-1.478;2024-03-02T15:49:15;9.10;99.90
23147;DHT22;11742;53.532;-1.478;2024-03-02T15:51:59;9.10;99.90
23147;DHT22;11742;53.532;-1.478;2024-03-02T15:54:48;9.10;99.90
23147;DHT22;11742;53.532;-1.478;2024-03-02T15:57:35;9.10;99.90
23147;DHT22;11742;53.532;-1.478;2024-03-02T16:00:19;9.20;99.90
23147;DHT22;11742;53.532;-1.478;2024-03-02T16:03:04;9.20;99.90
23147;DHT22;11742;53.532;-1.478;2024-03-02T16:05:49;9.20;99.90
23147;DHT22;11742;53.532;-1.478;2024-03-02T16:08:33;9.20;99.90
23147;DHT22;11742;53.532;-1.478;2024-03-02T16:11:18;9.20;99.90
23147;DHT22;11742;53.532;-1.478;2024-03-02T16:14:03;9.20;99.90
23147;DHT22;11742;53.532;-1.478;2024-03-02T16:16:47;9.20;99.90
23147;DHT22;11742;53.532;-1.478;2024-03-02T16:19:31;9.20;99.90
23147;DHT22;11742;53.532;-1.478;2024-03-02T16:22:15;9.20;99.90
23147;DHT22;11742;53.532;-1.478;2024-03-02T16:24:59;9.20;99.90
23147;DHT22;11742;53.532;-1.478;2024-03-02T16:27:43;9.30;99.90
23147;DHT22;11742;53.532;-1.478;2024-03-02T16:30:27;9.20;99.90
23147;DHT22;11742;53.532;-1.478;2024-03-02T16:33:11;9.30;99.90
23147;DHT22;11742;53.532;-1.478;2024-03-02T16:35:56;9.30;99.90
23147;DHT22;11742;53.532;-1.478;2024-03-02T16:38:40;9.30;99.90
23147;DHT22;11742;53.532;-1.478;2024-03-02T16:41:25;9.30;99.90
23147;DHT22;11742;53.532;-1.478;2024-03-02T16:44:13;9.30;99.90
23147;DHT22;11742;53.532;-1.478;2024-03-02T16:46:58;9.30;99.90
23147;DHT22;11742;53.532;-1.478;2024-03-02T16:49:45;9.30;99.90
23147;DHT22;11742;53.532;-1.478;2024-03-02T16:52:29;9.30;99.90
23147;DHT22;11742;53.532;-1.478;2024-03-02T16:55:13;9.30;99.90
23147;DHT22;11742;53.532;-1.478;2024-03-02T16:57:58;9.30;99.90
23147;DHT22;11742;53.532;-1.478;2024-03-02T17:00:42;9.30;99.90
23147;DHT22;11742;53.532;-1.478;2024-03-02T17:03:26;9.30;99.90
23147;DHT22;11742;53.532;-1.478;2024-03-02T17:06:11;9.30;99.90
23147;DHT22;11742;53.532;-1.478;2024-03-02T17:08:56;9.30;99.90
23147;DHT22;11742;53.532;-1.478;2024-03-02T17:11:40;9.30;99.90
23147;DHT22;11742;53.532;-1.478;2024-03-02T17:14:26;9.30;99.90
23147;DHT22;11742;53.532;-1.478;2024-03-02T17:17:10;9.30;99.90
23147;DHT22;11742;53.532;-1.478;2024-03-02T17:19:55;9.30;99.90
23147;DHT22;11742;53.532;-1.478;2024-03-02T17:22:39;9.20;99.90
23147;DHT22;11742;53.532;-1.478;2024-03-02T17:25:23;9.30;99.90